Time,TemperatureF,DewpointF,PressureIn,WindDirection,WindDirectionDegrees,WindSpeedMPH,WindSpeedGustMPH,Humidity,HourlyPrecipIn,Conditions,Clouds,dailyrainin,SoftwareType,DateUTC
2013-07-06 12:30:00,85.0,64.0,30.06,South,177,4.0,-999.0,49,-99.99,,,-99.99,,2013-07-06 17:30:00,
2013-07-06 13:10:00,85.0,64.0,30.06,South,177,4.0,-999.0,49,-99.99,,,-99.99,,2013-07-06 18:10:00,
2013-07-06 13:24:00,85.0,64.0,30.06,South,177,4.0,-999.0,49,-99.99,,,-99.99,,2013-07-06 18:24:00,
2013-07-06 14:22:00,86.0,62.0,30.01,SE,141,3.0,-999.0,44,-99.99,,,-99.99,,2013-07-06 19:22:00,
2013-07-06 14:30:00,87.0,62.0,30.00,SSE,163,3.0,-999.0,43,-99.99,,,-99.99,,2013-07-06 19:30:00,
2013-07-06 14:42:00,87.0,62.0,30.00,SSE,163,3.0,-999.0,43,-99.99,,,-99.99,,2013-07-06 19:42:00,
2013-07-06 14:58:00,87.0,62.0,30.00,SSE,163,3.0,-999.0,43,-99.99,,,-99.99,,2013-07-06 19:58:00,
2013-07-06 15:23:00,88.0,61.0,29.98,South,171,5.0,-999.0,40,-99.99,,,-99.99,,2013-07-06 20:23:00,
2013-07-06 16:00:00,88.0,59.0,29.98,South,172,4.0,-999.0,38,-99.99,,,-99.99,,2013-07-06 21:00:00,
2013-07-06 16:09:00,88.0,63.0,29.98,SSE,165,3.0,-999.0,43,-99.99,,,-99.99,,2013-07-06 21:09:00,
2013-07-06 16:20:00,88.0,63.0,29.98,SSE,165,3.0,-999.0,43,-99.99,,,-99.99,,2013-07-06 21:20:00,
2013-07-06 16:32:00,88.0,59.0,29.98,South,172,4.0,-999.0,38,-99.99,,,-99.99,,2013-07-06 21:32:00,
2013-07-06 16:42:00,88.0,59.0,29.98,South,172,4.0,-999.0,38,-99.99,,,-99.99,,2013-07-06 21:42:00,
2013-07-06 17:08:00,88.0,61.0,29.97,South,174,3.0,-999.0,40,-99.99,,,-99.99,,2013-07-06 22:08:00,
2013-07-06 17:23:00,88.0,61.0,29.97,South,174,3.0,-999.0,40,-99.99,,,-99.99,,2013-07-06 22:23:00,
2013-07-06 17:32:00,88.0,60.0,29.96,SE,146,5.0,-999.0,39,-99.99,,,-99.99,,2013-07-06 22:32:00,
2013-07-06 18:09:00,88.0,60.0,29.96,SE,144,5.0,-999.0,39,-99.99,,,-99.99,,2013-07-06 23:09:00,
2013-07-06 18:22:00,88.0,60.0,29.96,SE,144,5.0,-999.0,39,-99.99,,,-99.99,,2013-07-06 23:22:00,
2013-07-06 18:44:00,87.0,62.0,29.96,SSE,153,3.0,-999.0,43,-99.99,,,-99.99,,2013-07-06 23:44:00,
2013-07-06 18:59:00,87.0,62.0,29.96,SSE,153,3.0,-999.0,43,-99.99,,,-99.99,,2013-07-06 23:59:00,
2013-07-06 19:00:00,85.0,70.0,29.96,SSE,153,0.0,-999.0,62,-99.99,,,-99.99,,2013-07-07 00:00:00,
2013-07-06 19:09:00,86.0,63.0,29.96,SSE,153,1.0,-999.0,47,-99.99,,,-99.99,,2013-07-07 00:09:00,
2013-07-06 19:23:00,86.0,63.0,29.96,SSE,153,1.0,-999.0,47,-99.99,,,-99.99,,2013-07-07 00:23:00,
2013-07-06 19:59:00,85.0,70.0,29.96,SSE,153,0.0,-999.0,62,-99.99,,,-99.99,,2013-07-07 00:59:00,
2013-07-06 21:13:00,79.0,68.0,30.00,SSE,153,0.0,-999.0,69,-99.99,,,-99.99,,2013-07-07 02:13:00,
2013-07-06 21:43:00,79.0,68.0,30.00,SSE,153,0.0,-999.0,69,-99.99,,,-99.99,,2013-07-07 02:43:00,
2013-07-06 21:54:00,79.0,68.0,30.00,SSE,153,0.0,-999.0,69,-99.99,,,-99.99,,2013-07-07 02:54:00,
2013-07-06 22:02:00,79.0,68.0,30.00,SSE,153,0.0,-999.0,69,-99.99,,,-99.99,,2013-07-07 03:02:00,
2013-07-06 22:11:00,79.0,68.0,30.00,SSE,153,0.0,-999.0,69,-99.99,,,-99.99,,2013-07-07 03:11:00,